Chadstone Weather > Observations for 16/10/20

Select Day:



Observations
Time Temp Hum DP Wind Gust Dir Rain >9am Press
C % C kph kph mm hPa
00:00 12.9 89 11.1 2.3 9.7 SSE 1.5 1025.4
00:10 12.8 89 11.0 5.7 15.8 SE 1.5 1025.5
00:20 12.8 89 11.0 5.1 11.2 SSE 1.5 1025.7
00:30 12.8 88 10.9 3.8 12.2 SSE 1.5 1025.7
00:40 12.7 88 10.8 4.3 13.3 SSE 1.5 1025.6
00:50 12.7 88 10.8 6.1 13.3 ESE 1.5 1025.8
01:00 12.6 88 10.7 5.9 14.8 SE 1.5 1025.7
01:10 12.5 87 10.4 5.3 14.8 SSE 1.5 1025.6
01:20 12.4 87 10.3 3.9 11.2 S 1.5 1025.5
01:30 12.3 87 10.2 5.4 13.3 SSE 1.5 1025.5
01:40 12.3 87 10.2 3.2 9.7 SSW 1.5 1025.5
01:50 12.3 87 10.2 2.9 11.2 S 1.5 1025.5
02:00 12.3 87 10.2 6.0 17.3 SE 1.5 1025.5
02:10 12.2 87 10.1 5.4 13.3 SSE 1.5 1025.4
02:20 12.1 86 9.8 4.9 13.3 SSE 1.5 1025.5
02:30 12.1 86 9.8 5.5 17.3 SSE 1.5 1025.5
02:40 12.0 85 9.6 6.2 14.8 SSE 1.5 1025.6
02:50 12.0 84 9.4 6.2 14.8 SSE 1.5 1025.6
03:00 11.8 85 9.4 6.8 18.4 SSE 1.5 1025.6
03:10 11.8 84 9.2 6.7 19.4 SSW 1.5 1025.7
03:20 11.7 84 9.1 7.6 20.9 SE 1.5 1025.6
03:30 11.6 84 9.0 5.7 12.2 SSE 1.5 1025.4
03:40 11.5 84 8.9 6.3 15.8 SSE 1.5 1025.6
03:50 11.4 83 8.6 4.3 12.2 SE 1.5 1025.6
04:00 11.3 83 8.5 7.7 18.4 SE 1.5 1025.5
04:10 11.4 82 8.4 8.0 14.8 SE 1.5 1025.5
04:20 11.3 81 8.2 5.6 14.8 S 1.5 1025.4
04:30 11.3 80 8.0 3.1 11.2 SE 1.5 1025.5
04:40 11.2 78 7.5 6.1 18.4 SE 1.5 1025.6
04:50 11.1 78 7.4 6.3 19.4 SSE 1.5 1025.5
05:00 11.1 77 7.2 7.8 15.8 SE 1.5 1025.6
05:10 11.0 78 7.3 3.2 9.7 SE 1.5 1025.7
05:20 10.8 80 7.5 3.7 7.2 SSE 1.5 1025.8
05:30 10.6 81 7.5 3.0 8.6 SSE 1.5 1025.9
05:40 10.5 82 7.6 3.1 7.2 SSE 1.5 1025.8
05:50 10.4 83 7.6 3.1 8.6 SE 1.5 1025.9
06:00 10.3 83 7.5 2.8 7.2 SE 1.5 1025.9
06:10 10.3 83 7.5 4.0 8.6 SE 1.5 1025.8
06:20 10.1 83 7.3 2.2 8.6 SE 1.5 1025.9
06:30 10.0 83 7.2 3.6 9.7 SE 1.5 1025.8
06:40 10.0 83 7.2 4.3 9.7 SE 1.5 1026.2
06:50 9.9 84 7.3 2.6 8.6 SE 1.5 1026.1
07:00 9.8 84 7.2 0.9 7.2 SE 1.5 1026.3
07:10 9.7 84 7.1 2.4 12.2 SSE 1.5 1026.2
07:20 9.9 84 7.3 4.0 12.2 ESE 1.5 1026.4
07:30 10.2 83 7.4 5.8 14.8 ESE 1.5 1026.3
07:40 10.5 81 7.4 5.0 13.3 ESE 1.5 1026.3
07:50 10.6 79 7.1 9.8 17.3 SSE 1.5 1026.3
08:00 11.0 76 6.9 9.6 19.4 SE 1.5 1026.3
08:10 11.2 75 6.9 7.9 17.3 SE 1.5 1026.3
08:20 11.5 74 7.0 8.3 22.0 SE 1.5 1026.4
08:30 11.6 72 6.7 10.9 19.4 SE 1.5 1026.3
08:40 11.8 72 6.9 10.4 20.9 SSE 1.5 1026.4
08:50 12.1 69 6.6 10.6 19.4 SSE 1.5 1026.1
09:00 12.2 67 6.3 13.3 27.0 SSE 1.5 1026.3
09:10 12.3 66 6.1 11.3 24.5 S 1.5 1026.3
09:20 12.6 64 6.0 13.8 24.5 S 1.5 1026.2
09:30 12.9 63 6.0 10.3 20.9 E 1.5 1026.2
09:40 13.2 63 6.3 9.6 20.9 SE 1.5 1026.2
09:50 13.4 62 6.3 9.9 19.4 SSE 1.5 1026.1
10:00 13.8 61 6.4 10.9 20.9 SSE 0.0 1025.8
10:10 14.0 59 6.1 11.3 20.9 SE 0.0 1025.7
10:20 14.2 59 6.3 8.5 20.9 SE 0.0 1025.9
10:30 14.5 61 7.1 12.0 23.4 SSE 0.0 1025.5
10:40 15.2 61 7.7 7.5 17.3 S 0.0 1025.6
10:50 15.3 58 7.1 7.7 15.8 SSW 0.0 1026.1
11:00 15.5 58 7.3 8.3 18.4 SSW 0.0 1026.2
11:10 15.7 56 7.0 9.7 17.3 S 0.0 1026.1
11:20 16.4 55 7.3 7.9 17.3 NNE 0.0 1025.7
11:30 16.4 53 6.8 6.7 17.3 SSW 0.0 1025.2
11:40 16.8 54 7.4 9.0 20.9 S 0.0 1024.9
11:50 16.7 53 7.1 8.8 17.3 ESE 0.0 1024.8
12:00 16.6 53 7.0 10.6 22.0 SSE 0.0 1024.6
12:10 17.5 52 7.5 6.3 18.4 S 0.0 1024.3
12:20 17.5 52 7.5 6.2 14.8 SSE 0.0 1024.0
12:30 17.8 51 7.5 4.4 14.8 S 0.0 1023.6
12:40 18.0 51 7.7 6.3 14.8 WSW 0.0 1023.6
12:50 18.1 50 7.5 6.0 13.3 SSW 0.0 1023.7
13:00 18.9 50 8.3 2.7 8.6 NNW 0.0 1023.8
13:10 19.2 50 8.5 3.0 8.6 WNW 0.0 1023.5
13:20 19.9 50 9.2 2.5 8.6 W 0.0 1023.7
13:30 19.7 48 8.4 1.9 8.6 S 0.0 1023.3
13:40 20.0 48 8.7 3.3 11.2 WNW 0.0 1023.2
13:50 20.3 47 8.6 4.2 12.2 NNW 0.0 1022.9
14:00 20.0 46 8.0 4.9 15.8 NNE 0.0 1022.9
14:10 19.9 48 8.6 2.9 8.6 WNW 0.0 1022.7
14:20 20.1 47 8.4 4.1 8.6 NNE 0.0 1022.4
14:30 20.0 48 8.7 3.2 8.6 WNW 0.0 1022.5
14:40 19.9 50 9.2 3.1 9.7 NNW 0.0 1022.5
14:50 19.8 51 9.4 3.8 13.3 W 0.0 1022.4
15:00 19.5 54 10.0 6.9 13.3 WNW 0.0 1022.2
15:10 19.7 55 10.4 6.6 14.8 WNW 0.0 1022.1
15:20 19.9 55 10.6 6.5 12.2 WNW 0.0 1021.7
15:30 19.4 55 10.1 5.7 14.8 WNW 0.0 1021.5
15:40 19.2 55 10.0 5.6 12.2 NW 0.0 1021.5
15:50 18.8 57 10.1 5.4 9.7 WNW 0.0 1021.4
16:00 18.5 58 10.1 5.0 11.2 W 0.0 1021.2
16:10 18.1 58 9.7 4.7 9.7 WNW 0.0 1021.2
16:20 18.1 60 10.2 2.8 6.1 WNW 0.0 1021.1
16:30 18.0 62 10.6 2.9 6.1 W 0.0 1021.2
16:40 17.8 64 10.9 2.3 7.2 W 0.0 1021.1
16:50 17.5 67 11.3 1.9 6.1 WSW 0.0 1021.1
17:00 17.1 69 11.4 1.1 7.2 SW 0.0 1021.2
17:10 17.0 71 11.7 2.0 6.1 SW 0.0 1021.1
17:20 16.8 73 11.9 0.7 3.6 SW 0.0 1021.0
17:30 16.6 74 12.0 1.1 3.6 SW 0.0 1021.0
17:40 16.5 75 12.1 0.3 2.5 W 0.3 1021.0
17:50 16.3 75 11.9 0.8 3.6 NW 0.3 1020.9
18:00 16.2 77 12.2 0.1 2.5 NW 0.6 1021.0
18:10 16.1 78 12.3 0.7 3.6 WNW 0.6 1021.0
18:20 15.9 80 12.5 1.4 5.0 WNW 0.9 1021.0
18:30 15.6 82 12.5 0.7 3.6 NW 0.9 1021.0
18:40 15.5 83 12.6 0.1 2.5 NW 1.2 1021.0
18:50 15.5 84 12.8 0.0 1.1 NW 1.2 1020.9
19:00 15.5 84 12.8 0.0 0.0 N 1.5 1020.7
19:10 15.5 85 13.0 0.0 0.0 N 1.8 1020.6
19:20 15.5 86 13.2 0.7 3.6 E 1.8 1020.4
19:30 15.4 87 13.3 0.0 1.1 E 1.8 1020.3
19:40 15.3 87 13.2 0.0 1.1 E 2.1 1020.4
19:50 15.2 88 13.2 0.0 0.0 N 2.1 1020.3
20:00 15.2 89 13.4 0.0 0.0 N 2.1 1020.4
20:10 15.1 90 13.5 0.0 0.0 N 2.4 1020.3
20:20 15.0 91 13.5 0.1 5.0 W 2.4 1020.5
20:30 15.0 91 13.5 2.9 6.1 W 2.4 1020.6
20:40 15.0 92 13.7 2.2 8.6 W 2.4 1020.6
20:50 15.0 92 13.7 0.5 5.0 WNW 2.4 1020.4
21:00 15.0 93 13.9 0.0 0.0 N 2.4 1020.2
21:10 15.0 93 13.9 0.3 2.5 E 2.4 1020.0
21:20 15.0 93 13.9 0.0 0.0 N 2.4 1020.2
21:30 14.9 94 13.9 0.1 2.5 SE 2.4 1020.1
21:40 14.9 95 14.1 0.0 0.0 N 2.4 1020.2
21:50 15.0 94 14.0 0.0 2.5 SE 2.4 1020.0
22:00 15.1 94 14.1 0.0 1.1 SE 2.4 1019.9
22:10 15.1 95 14.3 0.2 3.6 SE 2.4 1019.7
22:20 15.2 95 14.4 0.0 2.5 ESE 2.4 1019.7
22:30 15.3 95 14.5 0.0 0.0 N 2.4 1019.6
22:40 15.4 95 14.6 0.0 0.0 N 2.4 1019.7
22:50 15.4 96 14.8 1.1 6.1 N 2.4 1019.6
23:00 15.4 96 14.8 2.4 9.7 N 2.4 1019.4
23:10 15.4 96 14.8 3.9 11.2 NNE 2.4 1019.4
23:20 15.4 96 14.8 2.4 7.2 ENE 2.7 1019.3
23:30 15.5 96 14.9 2.6 7.2 NNE 2.7 1019.1
23:40 15.5 97 15.0 1.1 6.1 NE 2.7 1018.9
23:50 15.6 97 15.1 1.2 6.1 NNE 2.7 1018.8